Ivan — CRXJ — position and weather

sailwx.info

Track history (hours):
 
Tides and Currents Weather Stations Pressure Air Temp Water Temp Dewpoint Dewpoint Depression Visibility Wind Speed Wind Dir Waves Ship Positions

Ivan

Last reported at 2018-Jun-19 15:47 UTC. Time now 2018-Jun-23 07:54 UTC.
Position N 37°13' W 001°04'.

Length 100 m; draft 5.6 m.

Type: Cargo ship. MMSI: 255786000.

Date/timePositionNaut miles runAvg speedWind from/ knotsBaromVisibWave heightAir tempDewpointWater temp
2018-Jun-19 15:47N 37°13' W 001°04'310.4
2018-Jun-19 15:29N 37°15' W 001°01'510.7
2018-Jun-19 15:00N 37°18' W 000°56'510.8
2018-Jun-19 14:30N 37°22' W 000°51'611.0
2018-Jun-19 14:00N 37°26' W 000°45'611.1
2018-Jun-19 13:28N 37°30' W 000°40'510.9
2018-Jun-19 13:00N 37°33' W 000°35'510.8
2018-Jun-19 12:30N 37°37' W 000°31'611.1
2018-Jun-19 12:00N 37°42' W 000°27'1011.0
2018-Jun-19 11:08N 37°50' W 000°20'210.8
2018-Jun-19 10:57N 37°51' W 000°19'610.7
2018-Jun-19 10:21N 37°57' W 000°15'410.7
2018-Jun-19 09:59N 38°00' W 000°12'5510.8
2018-Jun-19 04:53N 38°46' E 000°26'10210.6
2018-Jun-18 19:18N 40°16' E 001°28'310.5
2018-Jun-18 19:00N 40°19' E 001°30'510.2
2018-Jun-18 18:30N 40°24' E 001°33'22 9.9
2018-Jun-18 16:20N 40°42' E 001°47'510.0
2018-Jun-18 15:49N 40°47' E 001°50'610.0
2018-Jun-18 15:13N 40°52' E 001°54'310.0
2018-Jun-18 14:56N 40°55' E 001°55'410.0
2018-Jun-18 14:30N 40°59' E 001°58'510.0
2018-Jun-18 14:00N 41°03' E 002°01'510.3
2018-Jun-18 13:30N 41°07' E 002°05'510.5
2018-Jun-18 13:00N 41°12' E 002°08'510.5
2018-Jun-18 12:30N 41°16' E 002°12'5 9.3
2018-Jun-18 12:00N 41°21' E 002°11'1 1.8
2018-Jun-18 11:22N 41°22' E 002°11'0 0.0
2018-Jun-18 10:58N 41°22' E 002°11'0 0.0
2018-Jun-18 10:22N 41°22' E 002°11'0 0.0
2018-Jun-18 09:55N 41°22' E 002°11'0 0.0
2018-Jun-18 09:28N 41°22' E 002°11'0 0.0
2018-Jun-18 08:58N 41°22' E 002°11'0 0.0
2018-Jun-18 08:28N 41°22' E 002°11'0 0.0
2018-Jun-18 07:58N 41°22' E 002°11'0 0.0
2018-Jun-18 07:28N 41°22' E 002°11'0 0.0
2018-Jun-18 06:58N 41°22' E 002°11'0 0.0
2018-Jun-18 06:28N 41°22' E 002°11'0 0.0
2018-Jun-18 05:58N 41°22' E 002°11'0 0.0
2018-Jun-18 05:28N 41°22' E 002°11'0 0.0
2018-Jun-18 04:58N 41°22' E 002°11'0 0.0
2018-Jun-18 04:28N 41°22' E 002°11'0 0.0
2018-Jun-18 03:58N 41°22' E 002°11'0 0.0
2018-Jun-18 03:28N 41°22' E 002°11'0 0.0
2018-Jun-18 02:58N 41°22' E 002°11'0 0.0
2018-Jun-18 02:28N 41°22' E 002°11'0 0.0
2018-Jun-18 02:01N 41°22' E 002°11'0 0.0
2018-Jun-18 01:31N 41°22' E 002°11'0 0.0
2018-Jun-18 01:00N 41°22' E 002°11'0 0.0
2018-Jun-18 00:30N 41°22' E 002°11'0 0.0
2018-Jun-18 00:00N 41°22' E 002°11'0 0.0
2018-Jun-17 23:27N 41°22' E 002°11'0 0.0
2018-Jun-17 23:00N 41°22' E 002°11'0 0.0
2018-Jun-17 22:30N 41°22' E 002°11'0 0.0
2018-Jun-17 22:00N 41°22' E 002°11'0 0.0
2018-Jun-17 21:30N 41°22' E 002°11'0 0.0
2018-Jun-17 21:00N 41°22' E 002°11'0 0.0
2018-Jun-17 20:27N 41°22' E 002°11'0 0.0
2018-Jun-17 20:00N 41°22' E 002°11'0 0.0
2018-Jun-17 19:27N 41°22' E 002°11'0 0.0
2018-Jun-17 19:00N 41°22' E 002°11'0 0.0
2018-Jun-17 18:27N 41°22' E 002°11'0 0.0
2018-Jun-17 18:00N 41°22' E 002°11'0 0.0
2018-Jun-17 17:30N 41°22' E 002°11'0 0.0
2018-Jun-17 17:00N 41°22' E 002°11'0 0.0
2018-Jun-17 16:30N 41°22' E 002°11'0 0.0
2018-Jun-17 16:00N 41°22' E 002°11'0 0.0
2018-Jun-17 15:29N 41°22' E 002°11'0 0.5
2018-Jun-17 15:01N 41°22' E 002°11'4 7.4
2018-Jun-17 14:30N 41°19' E 002°13'510.1
2018-Jun-17 14:00N 41°14' E 002°11'510.2
2018-Jun-17 13:30N 41°09' E 002°08'510.3
2018-Jun-17 12:59N 41°05' E 002°04'510.1
2018-Jun-17 12:30N 41°00' E 002°01'12 9.9
2018-Jun-17 11:18N 40°50' E 001°54'3 9.9
2018-Jun-17 11:00N 40°47' E 001°52'1310.0
2018-Jun-17 09:44N 40°36' E 001°45'6310.2
2018-Jun-17 03:35N 39°40' E 001°07'110.0
2018-Jun-17 03:30N 39°40' E 001°06'510.0
2018-Jun-17 03:00N 39°35' E 001°03'16 9.7
2018-Jun-17 01:22N 39°21' E 000°54'9 9.7
2018-Jun-17 00:29N 39°13' E 000°49'6 9.7
2018-Jun-16 23:51N 39°08' E 000°45'4 9.9
2018-Jun-16 23:26N 39°04' E 000°43'510.3
2018-Jun-16 23:00N 39°00' E 000°40'510.3
2018-Jun-16 22:30N 38°56' E 000°37'1010.3
2018-Jun-16 21:33N 38°47' E 000°31'210.4
2018-Jun-16 21:21N 38°45' E 000°30'410.5
2018-Jun-16 20:58N 38°41' E 000°28'510.4
2018-Jun-16 20:30N 38°37' E 000°24'510.5
2018-Jun-16 20:00N 38°33' E 000°21'610.6
2018-Jun-16 19:29N 38°29' E 000°17'510.5
2018-Jun-16 19:00N 38°25' E 000°13'510.6
2018-Jun-16 18:30N 38°20' E 000°09'510.5
2018-Jun-16 18:00N 38°16' E 000°05'510.5
2018-Jun-16 17:30N 38°11' E 000°01'510.3
2018-Jun-16 17:00N 38°07' W 000°02'610.8
2018-Jun-16 16:29N 38°02' W 000°06'511.2
2018-Jun-16 16:00N 37°58' W 000°10'611.1
2018-Jun-16 15:30N 37°53' W 000°14'610.7
2018-Jun-16 14:59N 37°49' W 000°18'510.3
2018-Jun-16 14:30N 37°45' W 000°21'510.4
2018-Jun-16 14:00N 37°40' W 000°25'510.0
2018-Jun-16 13:30N 37°36' W 000°28'5 9.8
2018-Jun-16 13:00N 37°32' W 000°32'5 9.8
2018-Jun-16 12:30N 37°29' W 000°37'510.0
2018-Jun-16 12:00N 37°26' W 000°41'5 9.8
2018-Jun-16 11:30N 37°23' W 000°46'5 9.4
2018-Jun-16 11:00N 37°20' W 000°51'5 9.6
2018-Jun-16 10:30N 37°16' W 000°55'5 9.9
2018-Jun-16 09:59N 37°13' W 001°00'510.2
2018-Jun-16 09:30N 37°10' W 001°05'5 9.8
2018-Jun-16 09:00N 37°07' W 001°09'510.3
2018-Jun-16 08:30N 37°03' W 001°14'510.5
2018-Jun-16 08:00N 36°60' W 001°19'510.5
2018-Jun-16 07:30N 36°57' W 001°24'910.2
2018-Jun-16 06:35N 36°50' W 001°33'1 9.8
2018-Jun-16 06:27N 36°49' W 001°34'175 6.8
2018-Jun-15 04:51N 36°08' W 005°05'511.0
2018-Jun-15 04:23N 36°04' W 005°10'412.1
2018-Jun-15 04:00N 36°02' W 005°14'611.5
2018-Jun-15 03:30N 35°59' W 005°20'611.7
2018-Jun-15 03:00N 35°57' W 005°28'710.9
2018-Jun-15 02:23N 35°55' W 005°36'4 9.7
2018-Jun-15 01:57N 35°54' W 005°41'4 7.7
2018-Jun-15 01:28N 35°54' W 005°45'4 7.2
2018-Jun-15 00:59N 35°53' W 005°49'9 8.2
2018-Jun-14 23:55N 35°51' W 005°60'  
2018-Jun-12 13:43N 29°11' W 013°17'2 9.8
2018-Jun-12 13:28N 29°09' W 013°19'4 9.7
2018-Jun-12 13:00N 29°05' W 013°22'5 9.7
2018-Jun-12 12:30N 29°01' W 013°25'5 9.5
2018-Jun-12 12:00N 28°58' W 013°29'2 4.3
2018-Jun-12 11:30N 28°58' W 013°32'0 0.0
2018-Jun-12 11:00N 28°58' W 013°32'0 0.0
2018-Jun-12 10:30N 28°58' W 013°32'0 0.0
2018-Jun-12 10:00N 28°58' W 013°32'0 0.0
2018-Jun-12 09:30N 28°58' W 013°32'0 0.0
2018-Jun-12 07:29N 28°58' W 013°32'0 0.0
2018-Jun-12 06:41N 28°58' W 013°32'0 0.0
2018-Jun-12 06:11N 28°58' W 013°32'0 0.0
2018-Jun-12 05:17N 28°58' W 013°32'0 0.0
2018-Jun-12 04:42N 28°58' W 013°32'0 0.1
2018-Jun-12 04:30N 28°58' W 013°32'1 2.4
2018-Jun-12 04:00N 28°57' W 013°32'3 5.4
2018-Jun-12 03:30N 28°55' W 013°34'3 5.3
2018-Jun-12 03:00N 28°54' W 013°37'3 6.0
2018-Jun-12 02:29N 28°52' W 013°40'3 6.7
2018-Jun-12 01:59N 28°51' W 013°43'4 7.9
2018-Jun-12 01:29N 28°49' W 013°47'4 7.5
2018-Jun-12 00:59N 28°48' W 013°51'4 7.7
2018-Jun-12 00:29N 28°48' W 013°56'4 8.0
2018-Jun-11 23:59N 28°48' W 014°01'5 7.3
2018-Jun-11 23:18N 28°47' W 014°06'2 7.2
2018-Jun-11 23:00N 28°45' W 014°08'15 7.3
2018-Jun-11 20:52N 28°37' W 014°23'4 7.7
2018-Jun-11 20:21N 28°35' W 014°27'3 7.9
2018-Jun-11 19:56N 28°34' W 014°30'4 8.0
2018-Jun-11 19:28N 28°32' W 014°34'4 7.9
2018-Jun-11 19:00N 28°30' W 014°38'4 8.0
2018-Jun-11 18:30N 28°28' W 014°42'4 7.8
2018-Jun-11 18:00N 28°26' W 014°46'4 7.8
2018-Jun-11 17:30N 28°25' W 014°49'4 7.7
2018-Jun-11 17:00N 28°22' W 014°53'4 7.8
2018-Jun-11 16:30N 28°20' W 014°57'4 7.6
2018-Jun-11 16:00N 28°18' W 015°00'4 7.5
2018-Jun-11 15:30N 28°17' W 015°04'4 7.5
2018-Jun-11 15:00N 28°15' W 015°08'4 7.7
2018-Jun-11 14:30N 28°13' W 015°12'4 7.8
2018-Jun-11 14:00N 28°11' W 015°16'4 8.0
2018-Jun-11 13:30N 28°09' W 015°19'4 8.0
2018-Jun-11 13:00N 28°07' W 015°24'2 3.2
2018-Jun-11 12:29N 28°08' W 015°25'0 0.0
2018-Jun-11 11:59N 28°08' W 015°25'0 0.0
2018-Jun-11 11:29N 28°08' W 015°25'0 0.0
2018-Jun-11 10:59N 28°08' W 015°25'0 0.0
2018-Jun-11 10:29N 28°08' W 015°25'0 0.0
2018-Jun-11 09:59N 28°08' W 015°25'0 0.0
2018-Jun-11 09:20N 28°08' W 015°25'0 0.0
2018-Jun-11 08:59N 28°08' W 015°25'0 0.0
2018-Jun-11 08:29N 28°08' W 015°25'0 0.0
2018-Jun-11 07:59N 28°08' W 015°25'0 0.0
2018-Jun-11 07:20N 28°08' W 015°25'0 0.0
2018-Jun-11 06:50N 28°08' W 015°25'0 0.0
2018-Jun-11 06:20N 28°08' W 015°25'0 0.0
2018-Jun-11 05:49N 28°08' W 015°25'0 0.0
2018-Jun-11 05:22N 28°08' W 015°25'0 0.0
2018-Jun-11 04:52N 28°08' W 015°25'0 0.0
2018-Jun-11 04:22N 28°08' W 015°25'0 0.0
2018-Jun-11 03:52N 28°08' W 015°25'0 0.0
2018-Jun-11 03:22N 28°08' W 015°25'0 0.0
2018-Jun-11 02:52N 28°08' W 015°25'0 0.0
2018-Jun-11 02:22N 28°08' W 015°25'0 0.0
2018-Jun-11 01:52N 28°08' W 015°25'0 0.0
2018-Jun-11 01:22N 28°08' W 015°25'0 0.0
2018-Jun-11 00:52N 28°08' W 015°25'0 0.0
2018-Jun-11 00:22N 28°08' W 015°25'0 0.0
2018-Jun-10 23:55N 28°08' W 015°25'0 0.0
2018-Jun-10 23:25N 28°08' W 015°25'0 0.0
2018-Jun-10 22:55N 28°08' W 015°25'0 0.0
2018-Jun-10 22:25N 28°08' W 015°25'0 0.0
2018-Jun-10 21:55N 28°08' W 015°25'0 0.0
2018-Jun-10 21:25N 28°08' W 015°25'0 0.0
2018-Jun-10 20:55N 28°08' W 015°25'0 0.0
2018-Jun-10 20:25N 28°08' W 015°25'0 0.0
2018-Jun-10 20:00N 28°08' W 015°25'1 1.1
2018-Jun-10 19:30N 28°08' W 015°25'2 4.0
2018-Jun-10 19:00N 28°08' W 015°22'2 3.1
2018-Jun-10 18:30N 28°09' W 015°22'3 5.8
2018-Jun-10 18:00N 28°12' W 015°24'3 6.0
2018-Jun-10 17:30N 28°14' W 015°27'3 5.7
2018-Jun-10 17:00N 28°14' W 015°30'3 5.6
2018-Jun-10 16:30N 28°14' W 015°33'3 5.6
2018-Jun-10 16:00N 28°14' W 015°36'3 5.6
2018-Jun-10 15:30N 28°14' W 015°39'3 5.6
2018-Jun-10 15:00N 28°14' W 015°42'3 5.6
2018-Jun-10 14:28N 28°14' W 015°46'5 5.4
2018-Jun-10 13:30N 28°15' W 015°52'3 5.2
2018-Jun-10 13:00N 28°15' W 015°55'3 5.3
2018-Jun-10 12:30N 28°15' W 015°58'3 6.0
2018-Jun-10 12:00N 28°17' W 016°00'3 6.1
2018-Jun-10 11:30N 28°19' W 016°03'3 6.3
2018-Jun-10 11:00N 28°21' W 016°05'3 6.2
2018-Jun-10 10:28N 28°24' W 016°08'3 6.2
2018-Jun-10 09:58N 28°26' W 016°11'3 6.5
2018-Jun-10 09:29N 28°28' W 016°13'1 0.1
2018-Jun-09 17:20N 28°29' W 016°15'0 0.2
2018-Jun-09 17:00N 28°29' W 016°15'2 3.6
2018-Jun-09 16:30N 28°28' W 016°13'2 4.9
2018-Jun-09 16:00N 28°29' W 016°10'  
Track history (hours):
 
Tides and Currents Weather Stations Pressure Air Temp Water Temp Dewpoint Dewpoint Depression Visibility Wind Speed Wind Dir Waves Ship Positions

Ivan

Last reported at 2018-Jun-19 15:47 UTC. Time now 2018-Jun-23 07:54 UTC.
Position N 37°13' W 001°04'.

Length 100 m; draft 5.6 m.

Type: Cargo ship. MMSI: 255786000.

Date/timePositionNaut miles runAvg speedWind from/ knotsBaromVisibWave heightAir tempDewpointWater temp
2018-Jun-19 15:47N 37°13' W 001°04'310.4
2018-Jun-19 15:29N 37°15' W 001°01'510.7
2018-Jun-19 15:00N 37°18' W 000°56'510.8
2018-Jun-19 14:30N 37°22' W 000°51'611.0
2018-Jun-19 14:00N 37°26' W 000°45'611.1
2018-Jun-19 13:28N 37°30' W 000°40'510.9
2018-Jun-19 13:00N 37°33' W 000°35'510.8
2018-Jun-19 12:30N 37°37' W 000°31'611.1
2018-Jun-19 12:00N 37°42' W 000°27'1011.0
2018-Jun-19 11:08N 37°50' W 000°20'210.8
2018-Jun-19 10:57N 37°51' W 000°19'610.7
2018-Jun-19 10:21N 37°57' W 000°15'410.7
2018-Jun-19 09:59N 38°00' W 000°12'5510.8
2018-Jun-19 04:53N 38°46' E 000°26'10210.6
2018-Jun-18 19:18N 40°16' E 001°28'310.5
2018-Jun-18 19:00N 40°19' E 001°30'510.2
2018-Jun-18 18:30N 40°24' E 001°33'22 9.9
2018-Jun-18 16:20N 40°42' E 001°47'510.0
2018-Jun-18 15:49N 40°47' E 001°50'610.0
2018-Jun-18 15:13N 40°52' E 001°54'310.0
2018-Jun-18 14:56N 40°55' E 001°55'410.0
2018-Jun-18 14:30N 40°59' E 001°58'510.0
2018-Jun-18 14:00N 41°03' E 002°01'510.3
2018-Jun-18 13:30N 41°07' E 002°05'510.5
2018-Jun-18 13:00N 41°12' E 002°08'510.5
2018-Jun-18 12:30N 41°16' E 002°12'5 9.3
2018-Jun-18 12:00N 41°21' E 002°11'1 1.8
2018-Jun-18 11:22N 41°22' E 002°11'0 0.0
2018-Jun-18 10:58N 41°22' E 002°11'0 0.0
2018-Jun-18 10:22N 41°22' E 002°11'0 0.0
2018-Jun-18 09:55N 41°22' E 002°11'0 0.0
2018-Jun-18 09:28N 41°22' E 002°11'0 0.0
2018-Jun-18 08:58N 41°22' E 002°11'0 0.0
2018-Jun-18 08:28N 41°22' E 002°11'0 0.0
2018-Jun-18 07:58N 41°22' E 002°11'0 0.0
2018-Jun-18 07:28N 41°22' E 002°11'0 0.0
2018-Jun-18 06:58N 41°22' E 002°11'0 0.0
2018-Jun-18 06:28N 41°22' E 002°11'0 0.0
2018-Jun-18 05:58N 41°22' E 002°11'0 0.0
2018-Jun-18 05:28N 41°22' E 002°11'0 0.0
2018-Jun-18 04:58N 41°22' E 002°11'0 0.0
2018-Jun-18 04:28N 41°22' E 002°11'0 0.0
2018-Jun-18 03:58N 41°22' E 002°11'0 0.0
2018-Jun-18 03:28N 41°22' E 002°11'0 0.0
2018-Jun-18 02:58N 41°22' E 002°11'0 0.0
2018-Jun-18 02:28N 41°22' E 002°11'0 0.0
2018-Jun-18 02:01N 41°22' E 002°11'0 0.0
2018-Jun-18 01:31N 41°22' E 002°11'0 0.0
2018-Jun-18 01:00N 41°22' E 002°11'0 0.0
2018-Jun-18 00:30N 41°22' E 002°11'0 0.0
2018-Jun-18 00:00N 41°22' E 002°11'0 0.0
2018-Jun-17 23:27N 41°22' E 002°11'0 0.0
2018-Jun-17 23:00N 41°22' E 002°11'0 0.0
2018-Jun-17 22:30N 41°22' E 002°11'0 0.0
2018-Jun-17 22:00N 41°22' E 002°11'0 0.0
2018-Jun-17 21:30N 41°22' E 002°11'0 0.0
2018-Jun-17 21:00N 41°22' E 002°11'0 0.0
2018-Jun-17 20:27N 41°22' E 002°11'0 0.0
2018-Jun-17 20:00N 41°22' E 002°11'0 0.0
2018-Jun-17 19:27N 41°22' E 002°11'0 0.0
2018-Jun-17 19:00N 41°22' E 002°11'0 0.0
2018-Jun-17 18:27N 41°22' E 002°11'0 0.0
2018-Jun-17 18:00N 41°22' E 002°11'0 0.0
2018-Jun-17 17:30N 41°22' E 002°11'0 0.0
2018-Jun-17 17:00N 41°22' E 002°11'0 0.0
2018-Jun-17 16:30N 41°22' E 002°11'0 0.0
2018-Jun-17 16:00N 41°22' E 002°11'0 0.0
2018-Jun-17 15:29N 41°22' E 002°11'0 0.5
2018-Jun-17 15:01N 41°22' E 002°11'4 7.4
2018-Jun-17 14:30N 41°19' E 002°13'510.1
2018-Jun-17 14:00N 41°14' E 002°11'510.2
2018-Jun-17 13:30N 41°09' E 002°08'510.3
2018-Jun-17 12:59N 41°05' E 002°04'510.1
2018-Jun-17 12:30N 41°00' E 002°01'12 9.9
2018-Jun-17 11:18N 40°50' E 001°54'3 9.9
2018-Jun-17 11:00N 40°47' E 001°52'1310.0
2018-Jun-17 09:44N 40°36' E 001°45'6310.2
2018-Jun-17 03:35N 39°40' E 001°07'110.0
2018-Jun-17 03:30N 39°40' E 001°06'510.0
2018-Jun-17 03:00N 39°35' E 001°03'16 9.7
2018-Jun-17 01:22N 39°21' E 000°54'9 9.7
2018-Jun-17 00:29N 39°13' E 000°49'6 9.7
2018-Jun-16 23:51N 39°08' E 000°45'4 9.9
2018-Jun-16 23:26N 39°04' E 000°43'510.3
2018-Jun-16 23:00N 39°00' E 000°40'510.3
2018-Jun-16 22:30N 38°56' E 000°37'1010.3
2018-Jun-16 21:33N 38°47' E 000°31'210.4
2018-Jun-16 21:21N 38°45' E 000°30'410.5
2018-Jun-16 20:58N 38°41' E 000°28'510.4
2018-Jun-16 20:30N 38°37' E 000°24'510.5
2018-Jun-16 20:00N 38°33' E 000°21'610.6
2018-Jun-16 19:29N 38°29' E 000°17'510.5
2018-Jun-16 19:00N 38°25' E 000°13'510.6
2018-Jun-16 18:30N 38°20' E 000°09'510.5
2018-Jun-16 18:00N 38°16' E 000°05'510.5
2018-Jun-16 17:30N 38°11' E 000°01'510.3
2018-Jun-16 17:00N 38°07' W 000°02'610.8
2018-Jun-16 16:29N 38°02' W 000°06'511.2
2018-Jun-16 16:00N 37°58' W 000°10'611.1
2018-Jun-16 15:30N 37°53' W 000°14'610.7
2018-Jun-16 14:59N 37°49' W 000°18'510.3
2018-Jun-16 14:30N 37°45' W 000°21'510.4
2018-Jun-16 14:00N 37°40' W 000°25'510.0
2018-Jun-16 13:30N 37°36' W 000°28'5 9.8
2018-Jun-16 13:00N 37°32' W 000°32'5 9.8
2018-Jun-16 12:30N 37°29' W 000°37'510.0
2018-Jun-16 12:00N 37°26' W 000°41'5 9.8
2018-Jun-16 11:30N 37°23' W 000°46'5 9.4
2018-Jun-16 11:00N 37°20' W 000°51'5 9.6
2018-Jun-16 10:30N 37°16' W 000°55'5 9.9
2018-Jun-16 09:59N 37°13' W 001°00'510.2
2018-Jun-16 09:30N 37°10' W 001°05'5 9.8
2018-Jun-16 09:00N 37°07' W 001°09'510.3
2018-Jun-16 08:30N 37°03' W 001°14'510.5
2018-Jun-16 08:00N 36°60' W 001°19'510.5
2018-Jun-16 07:30N 36°57' W 001°24'910.2
2018-Jun-16 06:35N 36°50' W 001°33'1 9.8
2018-Jun-16 06:27N 36°49' W 001°34'175 6.8
2018-Jun-15 04:51N 36°08' W 005°05'511.0
2018-Jun-15 04:23N 36°04' W 005°10'412.1
2018-Jun-15 04:00N 36°02' W 005°14'611.5
2018-Jun-15 03:30N 35°59' W 005°20'611.7
2018-Jun-15 03:00N 35°57' W 005°28'710.9
2018-Jun-15 02:23N 35°55' W 005°36'4 9.7
2018-Jun-15 01:57N 35°54' W 005°41'4 7.7
2018-Jun-15 01:28N 35°54' W 005°45'4 7.2
2018-Jun-15 00:59N 35°53' W 005°49'9 8.2
2018-Jun-14 23:55N 35°51' W 005°60'  
2018-Jun-12 13:43N 29°11' W 013°17'2 9.8
2018-Jun-12 13:28N 29°09' W 013°19'4 9.7
2018-Jun-12 13:00N 29°05' W 013°22'5 9.7
2018-Jun-12 12:30N 29°01' W 013°25'5 9.5
2018-Jun-12 12:00N 28°58' W 013°29'2 4.3
2018-Jun-12 11:30N 28°58' W 013°32'0 0.0
2018-Jun-12 11:00N 28°58' W 013°32'0 0.0
2018-Jun-12 10:30N 28°58' W 013°32'0 0.0
2018-Jun-12 10:00N 28°58' W 013°32'0 0.0
2018-Jun-12 09:30N 28°58' W 013°32'0 0.0
2018-Jun-12 07:29N 28°58' W 013°32'0 0.0
2018-Jun-12 06:41N 28°58' W 013°32'0 0.0
2018-Jun-12 06:11N 28°58' W 013°32'0 0.0
2018-Jun-12 05:17N 28°58' W 013°32'0 0.0
2018-Jun-12 04:42N 28°58' W 013°32'0 0.1
2018-Jun-12 04:30N 28°58' W 013°32'1 2.4
2018-Jun-12 04:00N 28°57' W 013°32'3 5.4
2018-Jun-12 03:30N 28°55' W 013°34'3 5.3
2018-Jun-12 03:00N 28°54' W 013°37'3 6.0
2018-Jun-12 02:29N 28°52' W 013°40'3 6.7
2018-Jun-12 01:59N 28°51' W 013°43'4 7.9
2018-Jun-12 01:29N 28°49' W 013°47'4 7.5
2018-Jun-12 00:59N 28°48' W 013°51'4 7.7
2018-Jun-12 00:29N 28°48' W 013°56'4 8.0
2018-Jun-11 23:59N 28°48' W 014°01'5 7.3
2018-Jun-11 23:18N 28°47' W 014°06'2 7.2
2018-Jun-11 23:00N 28°45' W 014°08'15 7.3
2018-Jun-11 20:52N 28°37' W 014°23'4 7.7
2018-Jun-11 20:21N 28°35' W 014°27'3 7.9
2018-Jun-11 19:56N 28°34' W 014°30'4 8.0
2018-Jun-11 19:28N 28°32' W 014°34'4 7.9
2018-Jun-11 19:00N 28°30' W 014°38'4 8.0
2018-Jun-11 18:30N 28°28' W 014°42'4 7.8
2018-Jun-11 18:00N 28°26' W 014°46'4 7.8
2018-Jun-11 17:30N 28°25' W 014°49'4 7.7
2018-Jun-11 17:00N 28°22' W 014°53'4 7.8
2018-Jun-11 16:30N 28°20' W 014°57'4 7.6
2018-Jun-11 16:00N 28°18' W 015°00'4 7.5
2018-Jun-11 15:30N 28°17' W 015°04'4 7.5
2018-Jun-11 15:00N 28°15' W 015°08'4 7.7
2018-Jun-11 14:30N 28°13' W 015°12'4 7.8
2018-Jun-11 14:00N 28°11' W 015°16'4 8.0
2018-Jun-11 13:30N 28°09' W 015°19'4 8.0
2018-Jun-11 13:00N 28°07' W 015°24'2 3.2
2018-Jun-11 12:29N 28°08' W 015°25'0 0.0
2018-Jun-11 11:59N 28°08' W 015°25'0 0.0
2018-Jun-11 11:29N 28°08' W 015°25'0 0.0
2018-Jun-11 10:59N 28°08' W 015°25'0 0.0
2018-Jun-11 10:29N 28°08' W 015°25'0 0.0
2018-Jun-11 09:59N 28°08' W 015°25'0 0.0
2018-Jun-11 09:20N 28°08' W 015°25'0 0.0
2018-Jun-11 08:59N 28°08' W 015°25'0 0.0
2018-Jun-11 08:29N 28°08' W 015°25'0 0.0
2018-Jun-11 07:59N 28°08' W 015°25'0 0.0
2018-Jun-11 07:20N 28°08' W 015°25'0 0.0
2018-Jun-11 06:50N 28°08' W 015°25'0 0.0
2018-Jun-11 06:20N 28°08' W 015°25'0 0.0
2018-Jun-11 05:49N 28°08' W 015°25'0 0.0
2018-Jun-11 05:22N 28°08' W 015°25'0 0.0
2018-Jun-11 04:52N 28°08' W 015°25'0 0.0
2018-Jun-11 04:22N 28°08' W 015°25'0 0.0
2018-Jun-11 03:52N 28°08' W 015°25'0 0.0
2018-Jun-11 03:22N 28°08' W 015°25'0 0.0
2018-Jun-11 02:52N 28°08' W 015°25'0 0.0
2018-Jun-11 02:22N 28°08' W 015°25'0 0.0
2018-Jun-11 01:52N 28°08' W 015°25'0 0.0
2018-Jun-11 01:22N 28°08' W 015°25'0 0.0
2018-Jun-11 00:52N 28°08' W 015°25'0 0.0
2018-Jun-11 00:22N 28°08' W 015°25'0 0.0
2018-Jun-10 23:55N 28°08' W 015°25'0 0.0
2018-Jun-10 23:25N 28°08' W 015°25'0 0.0
2018-Jun-10 22:55N 28°08' W 015°25'0 0.0
2018-Jun-10 22:25N 28°08' W 015°25'0 0.0
2018-Jun-10 21:55N 28°08' W 015°25'0 0.0
2018-Jun-10 21:25N 28°08' W 015°25'0 0.0
2018-Jun-10 20:55N 28°08' W 015°25'0 0.0
2018-Jun-10 20:25N 28°08' W 015°25'0 0.0
2018-Jun-10 20:00N 28°08' W 015°25'1 1.1
2018-Jun-10 19:30N 28°08' W 015°25'2 4.0
2018-Jun-10 19:00N 28°08' W 015°22'2 3.1
2018-Jun-10 18:30N 28°09' W 015°22'3 5.8
2018-Jun-10 18:00N 28°12' W 015°24'3 6.0
2018-Jun-10 17:30N 28°14' W 015°27'3 5.7
2018-Jun-10 17:00N 28°14' W 015°30'3 5.6
2018-Jun-10 16:30N 28°14' W 015°33'3 5.6
2018-Jun-10 16:00N 28°14' W 015°36'3 5.6
2018-Jun-10 15:30N 28°14' W 015°39'3 5.6
2018-Jun-10 15:00N 28°14' W 015°42'3 5.6
2018-Jun-10 14:28N 28°14' W 015°46'5 5.4
2018-Jun-10 13:30N 28°15' W 015°52'3 5.2
2018-Jun-10 13:00N 28°15' W 015°55'3 5.3
2018-Jun-10 12:30N 28°15' W 015°58'3 6.0
2018-Jun-10 12:00N 28°17' W 016°00'3 6.1
2018-Jun-10 11:30N 28°19' W 016°03'3 6.3
2018-Jun-10 11:00N 28°21' W 016°05'3 6.2
2018-Jun-10 10:28N 28°24' W 016°08'3 6.2
2018-Jun-10 09:58N 28°26' W 016°11'3 6.5
2018-Jun-10 09:29N 28°28' W 016°13'1 0.1
2018-Jun-09 17:20N 28°29' W 016°15'0 0.2
2018-Jun-09 17:00N 28°29' W 016°15'2 3.6
2018-Jun-09 16:30N 28°28' W 016°13'2 4.9
2018-Jun-09 16:00N 28°29' W 016°10'  

Dump ship's entire track history